createdAt,value
2022-11-30T00:01:34.418Z,101871.14
2022-11-30T00:04:03.230Z,101871.42
2022-11-30T00:06:30.935Z,101874.33
2022-11-30T00:08:58.936Z,101872.80
2022-11-30T00:11:28.637Z,101877.08
2022-11-30T00:13:56.770Z,101876.61
2022-11-30T00:16:24.977Z,101879.08
2022-11-30T00:18:53.235Z,101882.98
2022-11-30T00:21:21.224Z,101883.42
2022-11-30T00:23:49.403Z,101883.48
2022-11-30T00:26:22.438Z,101888.17
2022-11-30T00:28:50.828Z,101890.78
2022-11-30T00:31:19.688Z,101890.27
2022-11-30T00:33:48.296Z,101888.11
2022-11-30T00:36:18.960Z,101885.34
2022-11-30T00:38:47.691Z,101886.48
2022-11-30T00:41:16.521Z,101888.27
2022-11-30T00:43:45.083Z,101891.98
2022-11-30T00:46:13.106Z,101890.92
2022-11-30T00:48:41.293Z,101888.07
2022-11-30T00:51:11.197Z,101888.62
2022-11-30T00:53:40.540Z,101893.70
2022-11-30T00:56:09.833Z,101891.58
2022-11-30T00:58:37.796Z,101895.42
2022-11-30T01:01:06.694Z,101900.09
2022-11-30T01:03:36.022Z,101902.38
2022-11-30T01:06:06.055Z,101907.98
2022-11-30T01:08:34.797Z,101910.48
2022-11-30T01:11:17.500Z,101911.89
2022-11-30T01:13:45.574Z,101912.42
2022-11-30T01:16:19.563Z,101915.80
2022-11-30T01:18:48.603Z,101917.79
2022-11-30T01:21:21.112Z,101918.55
2022-11-30T01:23:49.482Z,101916.80
2022-11-30T01:26:17.821Z,101916.58
2022-11-30T01:28:49.706Z,101918.38
2022-11-30T01:31:17.550Z,101924.76
2022-11-30T01:33:50.288Z,101924.50
2022-11-30T01:36:22.986Z,101926.45
2022-11-30T01:38:54.621Z,101928.41
2022-11-30T01:41:29.391Z,101926.42
2022-11-30T01:44:20.039Z,101931.48
2022-11-30T01:46:59.839Z,101933.58
2022-11-30T01:49:36.157Z,101936.25
2022-11-30T01:52:10.603Z,101937.94
2022-11-30T01:54:45.847Z,101937.80
2022-11-30T01:57:30.165Z,101937.98
2022-11-30T02:00:01.681Z,101931.88
2022-11-30T02:02:43.890Z,101932.02
2022-11-30T02:05:13.105Z,101937.52
2022-11-30T02:07:41.988Z,101937.13
2022-11-30T02:10:33.224Z,101934.80
2022-11-30T02:13:32.436Z,101941.06
2022-11-30T02:16:09.686Z,101941.67
2022-11-30T02:19:03.458Z,101943.45
2022-11-30T02:21:38.260Z,101939.72
2022-11-30T02:24:36.465Z,101937.30
2022-11-30T02:27:37.312Z,101939.81
2022-11-30T02:30:20.542Z,101939.73
2022-11-30T02:33:04.533Z,101936.58
2022-11-30T02:35:38.912Z,101939.39
2022-11-30T02:38:06.760Z,101939.91
2022-11-30T02:40:34.590Z,101944.95
2022-11-30T02:43:06.346Z,101944.95
2022-11-30T02:46:05.209Z,101941.60
2022-11-30T02:48:42.723Z,101949.34
2022-11-30T02:51:15.921Z,101951.67
2022-11-30T02:53:45.091Z,101953.25
2022-11-30T02:56:13.105Z,101955.54
2022-11-30T02:58:41.257Z,101953.58
2022-11-30T03:01:09.214Z,101953.71
2022-11-30T03:03:37.165Z,101953.30
2022-11-30T03:06:05.095Z,101954.45
2022-11-30T03:08:32.926Z,101956.94
2022-11-30T03:11:05.648Z,101962.23
2022-11-30T03:13:34.221Z,101962.34
2022-11-30T03:16:10.512Z,101956.73
2022-11-30T03:18:39.714Z,101960.34
2022-11-30T03:21:12.360Z,101960.63
2022-11-30T03:23:40.907Z,101960.70
2022-11-30T03:26:09.541Z,101959.20
2022-11-30T03:28:38.010Z,101958.90
2022-11-30T03:31:06.008Z,101965.65
2022-11-30T03:33:33.938Z,101965.27
2022-11-30T03:36:03.784Z,101969.56
2022-11-30T03:38:32.346Z,101969.48
2022-11-30T03:41:01.832Z,101973.59
2022-11-30T03:43:30.192Z,101973.67
2022-11-30T03:45:58.694Z,101975.45
2022-11-30T03:48:26.801Z,101976.80
2022-11-30T03:50:57.140Z,101981.64
2022-11-30T03:53:25.965Z,101981.27
2022-11-30T03:55:55.935Z,101979.44
2022-11-30T03:58:24.844Z,101981.15
2022-11-30T04:01:14.091Z,101981.45
2022-11-30T04:03:43.284Z,101983.25
2022-11-30T04:06:13.006Z,101982.02
2022-11-30T04:08:41.826Z,101983.13
2022-11-30T04:11:10.608Z,101981.63
2022-11-30T04:13:39.735Z,101984.42
2022-11-30T04:16:08.075Z,101979.61
2022-11-30T04:18:37.268Z,101978.80
2022-11-30T04:21:06.815Z,101978.89
2022-11-30T04:23:37.832Z,101978.02
2022-11-30T04:26:08.169Z,101983.35
2022-11-30T04:28:36.250Z,101986.95
2022-11-30T04:31:04.857Z,101983.81
2022-11-30T04:33:33.341Z,101979.77
2022-11-30T04:36:03.932Z,101978.73
2022-11-30T04:38:33.370Z,101983.58
2022-11-30T04:41:09.172Z,101984.06
2022-11-30T04:43:37.285Z,101988.88
2022-11-30T04:46:06.092Z,101989.96
2022-11-30T04:48:34.583Z,101992.21
2022-11-30T04:51:07.164Z,101996.48
2022-11-30T04:53:36.415Z,102003.60
2022-11-30T04:56:08.611Z,102004.66
2022-11-30T04:58:37.117Z,102008.88
2022-11-30T05:01:05.469Z,102012.64
2022-11-30T05:03:33.464Z,102014.66
2022-11-30T05:06:01.466Z,102014.18
2022-11-30T05:08:29.542Z,102017.64
2022-11-30T05:10:57.950Z,102018.95
2022-11-30T05:13:26.433Z,102022.69
2022-11-30T05:15:55.075Z,102025.58
2022-11-30T05:18:24.065Z,102029.42
2022-11-30T05:20:54.157Z,102032.02
2022-11-30T05:23:22.422Z,102036.31
2022-11-30T05:25:51.041Z,102035.89
2022-11-30T05:28:19.453Z,102037.37
2022-11-30T05:30:47.517Z,102042.48
2022-11-30T05:33:15.597Z,102046.45
2022-11-30T05:35:49.667Z,102049.35
2022-11-30T05:38:18.344Z,102048.46
2022-11-30T05:40:46.777Z,102051.21
2022-11-30T05:43:14.987Z,102055.98
2022-11-30T05:45:45.063Z,102058.74
2022-11-30T05:48:13.266Z,102062.45
2022-11-30T05:50:41.227Z,102058.63
2022-11-30T05:53:09.027Z,102063.67
2022-11-30T05:55:37.291Z,102066.52
2022-11-30T05:58:05.315Z,102069.26
2022-11-30T06:00:33.512Z,102063.84
2022-11-30T06:03:01.784Z,102058.62
2022-11-30T06:05:30.006Z,102067.91
2022-11-30T06:08:00.636Z,102068.62
2022-11-30T06:10:28.557Z,102072.60
2022-11-30T06:12:56.432Z,102071.91
2022-11-30T06:15:24.280Z,102069.92
2022-11-30T06:17:52.112Z,102069.50
2022-11-30T06:20:22.533Z,102075.15
2022-11-30T06:22:50.371Z,102073.09
2022-11-30T06:25:36.722Z,102074.48
2022-11-30T06:28:10.090Z,102078.23
2022-11-30T06:30:38.350Z,102082.74
2022-11-30T06:33:06.819Z,102080.15
2022-11-30T06:35:34.606Z,102082.95
2022-11-30T06:38:02.500Z,102085.73
2022-11-30T06:40:31.520Z,102091.75
2022-11-30T06:42:59.635Z,102092.73
2022-11-30T06:45:27.524Z,102094.73
2022-11-30T06:47:56.717Z,102093.61
2022-11-30T06:50:24.817Z,102091.67
2022-11-30T06:52:52.677Z,102089.44
2022-11-30T06:55:20.640Z,102096.20
2022-11-30T06:57:48.760Z,102095.91
2022-11-30T07:00:17.675Z,102101.25
2022-11-30T07:02:45.473Z,102104.45
2022-11-30T07:05:14.016Z,102105.65
2022-11-30T07:07:42.547Z,102106.91
2022-11-30T07:10:10.761Z,102106.26
2022-11-30T07:12:38.667Z,102112.54
2022-11-30T07:15:07.290Z,102117.02
2022-11-30T07:17:35.101Z,102119.66
2022-11-30T07:20:03.468Z,102121.56
2022-11-30T07:22:31.691Z,102118.13
2022-11-30T07:25:19.686Z,102120.52
2022-11-30T07:27:49.042Z,102123.93
2022-11-30T07:30:17.980Z,102123.54
2022-11-30T07:32:46.178Z,102122.85
2022-11-30T07:35:14.350Z,102124.23
2022-11-30T07:37:42.853Z,102127.89
2022-11-30T07:40:11.160Z,102123.85
2022-11-30T07:42:39.278Z,102125.20
2022-11-30T07:45:07.717Z,102129.31
2022-11-30T07:47:36.117Z,102124.95
2022-11-30T07:50:04.152Z,102128.48
2022-11-30T07:52:31.937Z,102128.71
2022-11-30T07:55:00.098Z,102134.38
2022-11-30T07:57:28.134Z,102133.92
2022-11-30T07:59:55.932Z,102133.63
2022-11-30T08:02:23.942Z,102129.88
2022-11-30T08:04:52.590Z,102134.40
2022-11-30T08:07:20.686Z,102128.40
2022-11-30T08:09:49.152Z,102130.86
2022-11-30T08:12:17.744Z,102133.69
2022-11-30T08:15:18.281Z,102133.25
2022-11-30T08:17:33.850Z,102134.93
2022-11-30T08:20:01.946Z,102136.38
2022-11-30T08:22:30.066Z,102135.95
2022-11-30T08:24:58.237Z,102136.81
2022-11-30T08:27:26.363Z,102137.52
2022-11-30T08:29:54.173Z,102139.41
2022-11-30T08:32:24.754Z,102140.19
2022-11-30T08:34:53.735Z,102141.74
2022-11-30T08:37:21.547Z,102149.81
2022-11-30T08:39:49.379Z,102154.30
2022-11-30T08:42:17.188Z,102157.24
2022-11-30T08:44:45.328Z,102160.83
2022-11-30T08:47:13.404Z,102168.22
2022-11-30T08:49:41.400Z,102171.42
2022-11-30T08:52:16.847Z,102174.54
2022-11-30T08:57:35.141Z,102179.05
2022-11-30T09:00:04.062Z,102180.41
2022-11-30T09:02:32.038Z,102182.47
2022-11-30T09:05:00.150Z,102184.02
2022-11-30T09:07:28.049Z,102182.02
2022-11-30T09:09:56.141Z,102177.71
2022-11-30T09:12:24.031Z,102178.56
2022-11-30T09:14:57.721Z,102182.66
2022-11-30T09:17:26.380Z,102184.23
2022-11-30T09:19:55.143Z,102185.35
2022-11-30T09:22:23.319Z,102184.20
2022-11-30T09:24:51.324Z,102183.83
2022-11-30T09:27:19.409Z,102187.33
2022-11-30T09:29:47.275Z,102186.39
2022-11-30T09:32:15.131Z,102186.65
2022-11-30T09:34:44.457Z,102185.05
2022-11-30T09:37:12.587Z,102187.86
2022-11-30T09:39:40.463Z,102185.48
2022-11-30T09:42:47.718Z,102186.89
2022-11-30T09:45:36.894Z,102189.63
2022-11-30T09:48:23.053Z,102188.82
2022-11-30T09:50:51.400Z,102190.28
2022-11-30T09:53:36.815Z,102187.79
2022-11-30T09:56:19.458Z,102184.52
2022-11-30T09:58:54.062Z,102188.80
2022-11-30T10:01:23.067Z,102186.33
2022-11-30T10:03:51.041Z,102184.34
2022-11-30T10:06:31.274Z,102186.04
2022-11-30T10:09:27.019Z,102187.05
2022-11-30T10:12:19.650Z,102182.08
2022-11-30T10:15:15.595Z,102182.27
2022-11-30T10:17:54.820Z,102184.64
2022-11-30T10:20:29.021Z,102187.88
2022-11-30T10:23:29.994Z,102185.04
2022-11-30T10:26:03.525Z,102183.42
2022-11-30T10:28:53.630Z,102178.41
2022-11-30T10:31:33.019Z,102178.86
2022-11-30T10:34:32.852Z,102181.05
2022-11-30T10:37:33.507Z,102184.34
2022-11-30T10:40:30.751Z,102184.70
2022-11-30T10:43:30.371Z,102180.07
2022-11-30T10:45:58.748Z,102180.41
2022-11-30T10:48:43.671Z,102180.17
2022-11-30T10:51:12.781Z,102176.36
2022-11-30T10:53:41.154Z,102179.20
2022-11-30T10:56:14.081Z,102180.52
2022-11-30T10:59:11.305Z,102178.98
2022-11-30T11:01:42.812Z,102175.53
2022-11-30T11:04:25.772Z,102171.48
2022-11-30T11:07:00.526Z,102170.25
2022-11-30T11:09:39.201Z,102167.91
2022-11-30T11:12:16.859Z,102173.13
2022-11-30T11:14:45.800Z,102172.94
2022-11-30T11:17:19.770Z,102170.57
2022-11-30T11:19:50.361Z,102173.21
2022-11-30T11:22:21.677Z,102171.61
2022-11-30T11:24:52.163Z,102172.11
2022-11-30T11:27:27.560Z,102172.65
2022-11-30T11:30:13.175Z,102167.31
2022-11-30T11:32:41.697Z,102175.52
2022-11-30T11:35:34.751Z,102174.30
2022-11-30T11:38:05.483Z,102173.94
2022-11-30T11:40:33.797Z,102175.61
2022-11-30T11:43:04.162Z,102175.63
2022-11-30T11:45:37.340Z,102174.60
2022-11-30T11:48:28.723Z,102175.11
2022-11-30T11:51:08.729Z,102173.77
2022-11-30T11:53:47.445Z,102174.32
2022-11-30T11:56:32.957Z,102172.68
2022-11-30T11:59:10.697Z,102176.06
2022-11-30T12:01:50.729Z,102177.73
2022-11-30T12:04:37.850Z,102178.00
2022-11-30T12:07:19.817Z,102184.21
2022-11-30T12:10:21.778Z,102182.50
2022-11-30T12:12:56.557Z,102180.95
2022-11-30T12:15:33.232Z,102183.85
2022-11-30T12:18:23.766Z,102182.73
2022-11-30T12:21:12.126Z,102187.02
2022-11-30T12:24:05.163Z,102182.83
2022-11-30T12:26:41.002Z,102181.14
2022-11-30T12:29:18.038Z,102187.05
2022-11-30T12:32:01.389Z,102190.10
2022-11-30T12:34:54.541Z,102190.91
2022-11-30T12:37:45.939Z,102191.67
2022-11-30T12:40:30.708Z,102188.50
2022-11-30T12:43:03.570Z,102187.30
2022-11-30T12:45:42.663Z,102188.25
2022-11-30T12:48:39.408Z,102187.52
2022-11-30T12:51:25.033Z,102193.14
2022-11-30T12:54:13.430Z,102193.81
2022-11-30T12:56:52.606Z,102197.85
2022-11-30T12:59:39.763Z,102199.46
2022-11-30T13:02:08.133Z,102199.21
2022-11-30T13:04:57.769Z,102200.39
2022-11-30T13:07:32.813Z,102195.06
2022-11-30T13:10:17.217Z,102190.64
2022-11-30T13:12:50.254Z,102191.42
2022-11-30T13:15:25.045Z,102190.16
2022-11-30T13:17:55.952Z,102193.06
2022-11-30T13:20:44.728Z,102190.08
2022-11-30T13:23:22.703Z,102187.70
2022-11-30T13:26:09.888Z,102187.72
2022-11-30T13:28:41.041Z,102190.23
2022-11-30T13:31:24.171Z,102188.35
2022-11-30T13:33:59.808Z,102195.09
2022-11-30T13:36:43.556Z,102198.38
2022-11-30T13:39:14.531Z,102196.39
2022-11-30T13:41:45.818Z,102200.07
2022-11-30T13:44:38.391Z,102202.18
2022-11-30T13:47:18.271Z,102206.81
2022-11-30T13:49:57.171Z,102206.46
2022-11-30T13:53:03.574Z,102212.86
2022-11-30T13:55:53.335Z,102210.99
2022-11-30T13:58:21.735Z,102213.48
2022-11-30T14:01:25.695Z,102221.02
2022-11-30T14:04:16.533Z,102221.20
2022-11-30T14:07:00.651Z,102221.81
2022-11-30T14:09:41.409Z,102223.75
2022-11-30T14:12:48.982Z,102220.49
2022-11-30T14:15:26.491Z,102216.95
2022-11-30T14:17:57.564Z,102218.27
2022-11-30T14:20:37.563Z,102218.73
2022-11-30T14:23:14.835Z,102221.56
2022-11-30T14:25:50.718Z,102220.77
2022-11-30T14:28:24.518Z,102225.73
2022-11-30T14:30:56.021Z,102223.08
2022-11-30T14:33:50.877Z,102218.77
2022-11-30T14:36:20.797Z,102227.26
2022-11-30T14:38:49.499Z,102228.58
2022-11-30T14:41:29.614Z,102229.40
2022-11-30T14:44:00.340Z,102228.55
2022-11-30T14:46:30.286Z,102225.45
2022-11-30T14:49:06.428Z,102226.02
2022-11-30T14:51:34.991Z,102225.85
2022-11-30T14:54:33.403Z,102228.37
2022-11-30T14:57:17.256Z,102231.41
2022-11-30T14:59:49.054Z,102229.69
2022-11-30T15:02:27.132Z,102235.70
2022-11-30T15:04:57.925Z,102238.78
2022-11-30T15:07:27.775Z,102240.61
2022-11-30T15:10:09.763Z,102240.63
2022-11-30T15:12:40.824Z,102241.41
2022-11-30T15:15:17.901Z,102245.78
2022-11-30T15:17:57.943Z,102244.38
2022-11-30T15:21:06.925Z,102245.17
2022-11-30T15:23:35.831Z,102248.59
2022-11-30T15:26:33.384Z,102246.62
2022-11-30T15:29:03.466Z,102248.59
2022-11-30T15:31:39.326Z,102247.95
2022-11-30T15:34:16.827Z,102251.48
2022-11-30T15:36:45.932Z,102248.92
2022-11-30T15:39:25.829Z,102254.84
2022-11-30T15:41:55.472Z,102247.95
2022-11-30T15:44:46.694Z,102247.27
2022-11-30T15:47:35.765Z,102249.53
2022-11-30T15:50:22.074Z,102255.29
2022-11-30T15:52:51.794Z,102256.63
2022-11-30T15:55:43.771Z,102252.74
2022-11-30T15:58:38.850Z,102253.20
2022-11-30T16:01:13.134Z,102254.75
2022-11-30T16:04:05.046Z,102249.00
2022-11-30T16:06:45.365Z,102250.71
2022-11-30T16:09:35.208Z,102254.44
2022-11-30T16:12:04.393Z,102256.44
2022-11-30T16:14:33.626Z,102258.30
2022-11-30T16:17:16.176Z,102259.22
2022-11-30T16:19:45.076Z,102259.23
2022-11-30T16:22:14.398Z,102256.09
2022-11-30T16:24:42.545Z,102258.74
2022-11-30T16:27:20.142Z,102259.70
2022-11-30T16:29:52.358Z,102256.90
2022-11-30T16:32:21.061Z,102261.55
2022-11-30T16:34:49.837Z,102261.77
2022-11-30T16:37:18.206Z,102262.08
2022-11-30T16:39:47.070Z,102262.26
2022-11-30T16:42:15.488Z,102251.05
2022-11-30T16:44:43.548Z,102258.05
2022-11-30T16:47:12.280Z,102255.91
2022-11-30T16:49:40.541Z,102253.36
2022-11-30T16:52:16.516Z,102260.31
2022-11-30T16:54:44.856Z,102257.69
2022-11-30T16:57:14.205Z,102259.81
2022-11-30T16:59:42.343Z,102258.59
2022-11-30T17:02:22.702Z,102259.18
2022-11-30T17:04:51.470Z,102258.13
2022-11-30T17:07:20.262Z,102259.59
2022-11-30T17:09:48.718Z,102257.91
2022-11-30T17:12:17.445Z,102256.96
2022-11-30T17:14:46.348Z,102261.03
2022-11-30T17:17:16.516Z,102260.99
2022-11-30T17:19:45.794Z,102268.20
2022-11-30T17:22:14.223Z,102271.18
2022-11-30T17:24:42.348Z,102271.79
2022-11-30T17:27:12.162Z,102274.66
2022-11-30T17:29:44.243Z,102273.70
2022-11-30T17:32:12.720Z,102276.18
2022-11-30T17:34:42.370Z,102279.73
2022-11-30T17:37:12.411Z,102279.16
2022-11-30T17:39:42.981Z,102287.20
2022-11-30T17:42:11.769Z,102286.05
2022-11-30T17:44:41.685Z,102287.40
2022-11-30T17:47:10.197Z,102284.96
2022-11-30T17:49:38.694Z,102285.95
2022-11-30T17:52:07.679Z,102286.75
2022-11-30T17:54:36.218Z,102290.58
2022-11-30T17:57:05.179Z,102291.69
2022-11-30T17:59:33.565Z,102298.20
2022-11-30T18:02:01.753Z,102297.58
2022-11-30T18:04:31.596Z,102298.41
2022-11-30T18:07:01.342Z,102300.73
2022-11-30T18:09:31.916Z,102301.07
2022-11-30T18:12:00.971Z,102308.89
2022-11-30T18:14:29.560Z,102308.20
2022-11-30T18:16:57.876Z,102310.81
2022-11-30T18:19:25.967Z,102308.76
2022-11-30T18:21:57.592Z,102311.40
2022-11-30T18:24:28.320Z,102316.00
2022-11-30T18:26:56.753Z,102318.92
2022-11-30T18:29:25.729Z,102324.52
2022-11-30T18:31:54.516Z,102322.44
2022-11-30T18:34:23.287Z,102325.36
2022-11-30T18:36:52.268Z,102329.95
2022-11-30T18:39:21.143Z,102330.39
2022-11-30T18:41:49.802Z,102329.14
2022-11-30T18:44:18.391Z,102330.26
2022-11-30T18:46:48.021Z,102331.22
2022-11-30T18:49:17.177Z,102334.66
2022-11-30T18:51:46.224Z,102335.95
2022-11-30T18:54:14.643Z,102342.47
2022-11-30T18:56:43.208Z,102341.82
2022-11-30T18:59:14.455Z,102344.77
2022-11-30T19:01:43.213Z,102348.67
2022-11-30T19:04:11.600Z,102352.09
2022-11-30T19:06:41.481Z,102352.57
2022-11-30T19:09:13.012Z,102355.15
2022-11-30T19:11:42.728Z,102351.40
2022-11-30T19:14:16.517Z,102351.10
2022-11-30T19:16:46.900Z,102350.88
2022-11-30T19:19:15.798Z,102354.69
2022-11-30T19:21:47.867Z,102355.95
2022-11-30T19:24:16.704Z,102358.13
2022-11-30T19:26:50.843Z,102356.09
2022-11-30T19:29:19.800Z,102358.91
2022-11-30T19:31:51.148Z,102361.25
2022-11-30T19:34:19.671Z,102359.67
2022-11-30T19:36:50.413Z,102356.76
2022-11-30T19:39:18.932Z,102358.27
2022-11-30T19:41:48.260Z,102363.58
2022-11-30T19:44:17.008Z,102364.48
2022-11-30T19:46:45.838Z,102368.30
2022-11-30T19:49:14.292Z,102365.09
2022-11-30T19:51:42.611Z,102370.16
2022-11-30T19:54:11.016Z,102370.41
2022-11-30T19:56:41.357Z,102370.58
2022-11-30T19:59:10.017Z,102367.91
2022-11-30T20:01:38.139Z,102375.30
2022-11-30T20:04:06.183Z,102375.23
2022-11-30T20:06:37.033Z,102373.27
2022-11-30T20:09:07.444Z,102376.86
2022-11-30T20:11:35.897Z,102381.84
2022-11-30T20:14:04.495Z,102379.30
2022-11-30T20:16:33.216Z,102384.29
2022-11-30T20:19:02.708Z,102385.33
2022-11-30T20:21:33.957Z,102385.86
2022-11-30T20:24:06.233Z,102384.74
2022-11-30T20:26:37.411Z,102385.88
2022-11-30T20:29:09.590Z,102389.29
2022-11-30T20:31:38.769Z,102388.11
2022-11-30T20:34:08.523Z,102390.70
2022-11-30T20:36:37.536Z,102393.33
2022-11-30T20:39:07.242Z,102393.40
2022-11-30T20:41:35.444Z,102392.23
2022-11-30T20:44:04.738Z,102391.87
2022-11-30T20:46:36.911Z,102390.33
2022-11-30T20:49:13.948Z,102385.14
2022-11-30T20:51:43.554Z,102390.08
2022-11-30T20:54:12.854Z,102385.45
2022-11-30T20:56:41.674Z,102390.36
2022-11-30T20:59:15.656Z,102390.45
2022-11-30T21:01:45.442Z,102388.77
2022-11-30T21:04:14.285Z,102387.95
2022-11-30T21:06:45.655Z,102390.08
2022-11-30T21:09:15.489Z,102388.60
2022-11-30T21:11:43.976Z,102388.45
2022-11-30T21:14:12.257Z,102388.32
2022-11-30T21:16:41.051Z,102387.09
2022-11-30T21:19:11.600Z,102381.88
2022-11-30T21:21:41.492Z,102385.56
2022-11-30T21:24:12.950Z,102384.67
2022-11-30T21:26:44.819Z,102383.65
2022-11-30T21:29:15.833Z,102382.65
2022-11-30T21:31:44.907Z,102382.45
2022-11-30T21:34:13.724Z,102382.73
2022-11-30T21:36:42.006Z,102381.64
2022-11-30T21:39:13.555Z,102376.75
2022-11-30T21:41:42.292Z,102373.63
2022-11-30T21:44:12.343Z,102372.70
2022-11-30T21:46:41.048Z,102374.61
2022-11-30T21:49:10.009Z,102373.73
2022-11-30T21:51:41.409Z,102374.71
2022-11-30T21:54:12.653Z,102373.25
2022-11-30T21:56:42.691Z,102374.95
2022-11-30T21:59:13.343Z,102376.23
2022-11-30T22:01:42.792Z,102371.15
2022-11-30T22:04:13.130Z,102371.52
2022-11-30T22:06:42.069Z,102371.59
2022-11-30T22:09:16.015Z,102369.20
2022-11-30T22:11:45.380Z,102366.56
2022-11-30T22:14:15.939Z,102364.54
2022-11-30T22:16:44.534Z,102366.45
2022-11-30T22:19:12.636Z,102364.64
2022-11-30T22:21:44.088Z,102369.02
2022-11-30T22:24:14.997Z,102369.27
2022-11-30T22:26:45.010Z,102362.48
2022-11-30T22:29:18.872Z,102358.95
2022-11-30T22:31:48.691Z,102361.85
2022-11-30T22:34:16.692Z,102360.39
2022-11-30T22:36:45.986Z,102365.30
2022-11-30T22:39:19.492Z,102365.10
2022-11-30T22:41:54.771Z,102364.84
2022-11-30T22:44:24.680Z,102367.23
2022-11-30T22:46:52.768Z,102365.91
2022-11-30T22:49:22.828Z,102367.01
2022-11-30T22:51:51.254Z,102364.20
2022-11-30T22:54:19.535Z,102360.92
2022-11-30T22:56:47.509Z,102360.26
2022-11-30T22:59:15.738Z,102362.48
2022-11-30T23:01:46.368Z,102360.02
2022-11-30T23:04:16.356Z,102360.77
2022-11-30T23:06:45.604Z,102359.80
2022-11-30T23:09:16.483Z,102355.73
2022-11-30T23:11:44.858Z,102352.09
2022-11-30T23:14:13.347Z,102348.84
2022-11-30T23:16:41.243Z,102348.77
2022-11-30T23:19:11.419Z,102344.52
2022-11-30T23:21:42.298Z,102346.13
2022-11-30T23:24:14.904Z,102348.50
2022-11-30T23:26:43.313Z,102347.09
2022-11-30T23:29:13.318Z,102344.80
2022-11-30T23:31:43.408Z,102341.25
2022-11-30T23:34:17.737Z,102339.03
2022-11-30T23:36:45.901Z,102340.05
2022-11-30T23:39:16.320Z,102335.45
2022-11-30T23:41:44.528Z,102337.67
2022-11-30T23:44:12.891Z,102336.97
2022-11-30T23:46:43.397Z,102337.25
2022-11-30T23:49:13.113Z,102335.30
2022-11-30T23:51:41.314Z,102335.97
2022-11-30T23:54:09.030Z,102336.23
2022-11-30T23:56:36.828Z,102334.20
2022-11-30T23:59:04.588Z,102332.80
